createdAt,value
2022-07-28T00:01:00.984Z,63.16
2022-07-28T00:03:28.868Z,60.92
2022-07-28T00:05:56.803Z,61.36
2022-07-28T00:08:24.592Z,62.09
2022-07-28T00:10:52.486Z,62.29
2022-07-28T00:13:20.299Z,61.86
2022-07-28T00:15:48.301Z,61.98
2022-07-28T00:18:16.322Z,61.88
2022-07-28T00:20:44.099Z,60.42
2022-07-28T00:23:12.030Z,58.75
2022-07-28T00:25:39.908Z,58.96
2022-07-28T00:28:07.719Z,61.30
2022-07-28T00:30:35.517Z,63.69
2022-07-28T00:33:03.473Z,62.59
2022-07-28T00:35:32.640Z,62.62
2022-07-28T00:38:01.146Z,62.09
2022-07-28T00:40:48.102Z,62.03
2022-07-28T00:43:16.591Z,62.30
2022-07-28T00:45:44.555Z,62.31
2022-07-28T00:48:12.673Z,62.36
2022-07-28T00:50:41.152Z,61.93
2022-07-28T00:53:08.984Z,61.76
2022-07-28T00:56:02.755Z,61.44
2022-07-28T00:58:27.962Z,61.41
2022-07-28T01:00:56.380Z,61.41
2022-07-28T01:03:24.812Z,61.40
2022-07-28T01:05:58.241Z,61.30
2022-07-28T01:08:44.817Z,61.36
2022-07-28T01:11:31.235Z,61.04
2022-07-28T01:14:11.270Z,61.04
2022-07-28T01:16:57.943Z,61.30
2022-07-28T01:19:25.659Z,61.25
2022-07-28T01:21:54.164Z,61.56
2022-07-28T01:24:26.799Z,61.63
2022-07-28T01:26:59.207Z,61.64
2022-07-28T01:29:51.689Z,61.71
2022-07-28T01:32:22.080Z,61.89
2022-07-28T01:35:04.041Z,62.09
2022-07-28T01:37:33.038Z,61.89
2022-07-28T01:40:04.381Z,61.83
2022-07-28T01:42:35.812Z,62.13
2022-07-28T01:45:04.594Z,62.39
2022-07-28T01:47:34.075Z,62.79
2022-07-28T01:50:04.021Z,62.91
2022-07-28T01:52:32.436Z,62.84
2022-07-28T01:55:02.414Z,62.49
2022-07-28T01:57:31.752Z,62.73
2022-07-28T02:00:00.554Z,62.96
2022-07-28T02:02:29.780Z,62.72
2022-07-28T02:04:59.314Z,62.95
2022-07-28T02:07:27.189Z,62.81
2022-07-28T02:09:57.531Z,63.09
2022-07-28T02:12:26.657Z,63.43
2022-07-28T02:14:55.523Z,63.35
2022-07-28T02:17:28.226Z,63.89
2022-07-28T02:19:57.100Z,63.27
2022-07-28T02:22:27.079Z,63.42
2022-07-28T02:24:56.256Z,63.36
2022-07-28T02:27:38.622Z,63.60
2022-07-28T02:30:17.686Z,63.31
2022-07-28T02:32:50.313Z,63.46
2022-07-28T02:35:49.123Z,63.84
2022-07-28T02:38:26.881Z,63.74
2022-07-28T02:40:57.536Z,63.90
2022-07-28T02:43:49.003Z,63.93
2022-07-28T02:46:20.429Z,63.38
2022-07-28T02:48:52.944Z,63.84
2022-07-28T02:51:23.906Z,63.80
2022-07-28T02:53:52.260Z,64.30
2022-07-28T02:56:20.490Z,64.14
2022-07-28T02:58:48.559Z,64.24
2022-07-28T03:01:20.079Z,63.98
2022-07-28T03:03:49.419Z,63.81
2022-07-28T03:06:19.788Z,64.09
2022-07-28T03:08:57.541Z,64.36
2022-07-28T03:11:25.492Z,64.44
2022-07-28T03:13:53.773Z,64.51
2022-07-28T03:16:22.941Z,64.49
2022-07-28T03:18:51.044Z,64.58
2022-07-28T03:21:18.840Z,64.43
2022-07-28T03:23:48.371Z,64.74
2022-07-28T03:26:18.181Z,64.69
2022-07-28T03:28:46.790Z,64.18
2022-07-28T03:31:15.502Z,63.43
2022-07-28T03:33:43.500Z,63.56
2022-07-28T03:36:14.756Z,63.55
2022-07-28T03:38:46.952Z,63.84
2022-07-28T03:41:15.266Z,64.16
2022-07-28T03:43:43.610Z,63.71
2022-07-28T03:46:13.602Z,63.79
2022-07-28T03:48:41.580Z,63.50
2022-07-28T03:51:09.409Z,62.68
2022-07-28T03:53:37.835Z,62.72
2022-07-28T03:56:06.504Z,63.38
2022-07-28T03:58:34.415Z,63.14
2022-07-28T04:01:02.431Z,63.03
2022-07-28T04:03:43.251Z,63.74
2022-07-28T04:06:13.124Z,63.32
2022-07-28T04:08:42.909Z,63.29
2022-07-28T04:11:10.858Z,62.62
2022-07-28T04:13:38.841Z,62.14
2022-07-28T04:16:07.402Z,61.89
2022-07-28T04:18:35.767Z,62.84
2022-07-28T04:21:04.154Z,62.33
2022-07-28T04:23:33.088Z,62.14
2022-07-28T04:26:00.847Z,62.15
2022-07-28T04:28:28.646Z,62.47
2022-07-28T04:30:56.478Z,61.56
2022-07-28T04:33:24.953Z,61.28
2022-07-28T04:35:53.307Z,60.99
2022-07-28T04:38:21.133Z,60.64
2022-07-28T04:40:49.289Z,60.37
2022-07-28T04:43:17.246Z,60.14
2022-07-28T04:45:53.757Z,59.92
2022-07-28T04:48:24.042Z,59.79
2022-07-28T04:50:53.253Z,57.92
2022-07-28T04:53:22.507Z,56.72
2022-07-28T04:55:53.505Z,56.30
2022-07-28T04:58:23.733Z,58.57
2022-07-28T05:00:52.053Z,59.97
2022-07-28T05:03:20.779Z,61.87
2022-07-28T05:05:54.923Z,63.36
2022-07-28T05:08:25.674Z,62.29
2022-07-28T05:10:55.762Z,60.98
2022-07-28T05:13:24.088Z,60.29
2022-07-28T05:15:51.850Z,58.58
2022-07-28T05:18:19.599Z,57.70
2022-07-28T05:20:47.399Z,57.62
2022-07-28T05:23:15.826Z,58.57
2022-07-28T05:25:43.607Z,58.66
2022-07-28T05:28:11.583Z,59.02
2022-07-28T05:30:39.732Z,59.51
2022-07-28T05:33:07.760Z,59.25
2022-07-28T05:35:35.763Z,59.91
2022-07-28T05:38:06.391Z,59.73
2022-07-28T05:40:38.378Z,59.43
2022-07-28T05:43:06.799Z,60.78
2022-07-28T05:45:34.936Z,60.08
2022-07-28T05:48:02.753Z,61.87
2022-07-28T05:50:30.653Z,61.31
2022-07-28T05:52:58.400Z,62.89
2022-07-28T05:55:26.394Z,62.47
2022-07-28T05:57:54.486Z,56.86
2022-07-28T06:00:23.181Z,56.21
2022-07-28T06:02:51.562Z,57.56
2022-07-28T06:05:21.313Z,55.93
2022-07-28T06:07:50.937Z,56.74
2022-07-28T06:10:22.686Z,56.92
2022-07-28T06:12:55.472Z,56.25
2022-07-28T06:15:28.129Z,55.88
2022-07-28T06:17:56.134Z,56.38
2022-07-28T06:20:25.119Z,55.07
2022-07-28T06:22:55.116Z,55.47
2022-07-28T06:25:25.814Z,56.62
2022-07-28T06:27:56.211Z,56.49
2022-07-28T06:30:24.401Z,52.37
2022-07-28T06:32:52.373Z,51.78
2022-07-28T06:35:20.470Z,52.39
2022-07-28T06:37:50.933Z,52.57
2022-07-28T06:40:20.146Z,53.01
2022-07-28T06:42:47.860Z,49.39
2022-07-28T06:45:20.724Z,52.68
2022-07-28T06:47:53.749Z,50.63
2022-07-28T06:50:26.083Z,49.65
2022-07-28T06:52:56.577Z,50.86
2022-07-28T06:55:24.842Z,50.88
2022-07-28T06:57:53.069Z,51.37
2022-07-28T07:00:20.906Z,51.17
2022-07-28T07:02:49.629Z,49.75
2022-07-28T07:05:17.805Z,50.07
2022-07-28T07:07:45.614Z,47.72
2022-07-28T07:10:13.439Z,47.97
2022-07-28T07:12:41.388Z,48.44
2022-07-28T07:15:10.345Z,48.34
2022-07-28T07:17:38.229Z,48.41
2022-07-28T07:20:06.950Z,48.91
2022-07-28T07:22:35.645Z,47.16
2022-07-28T07:25:13.769Z,48.14
2022-07-28T07:27:41.898Z,47.60
2022-07-28T07:30:10.929Z,48.01
2022-07-28T07:32:38.665Z,48.53
2022-07-28T07:35:07.245Z,48.59
2022-07-28T07:37:35.117Z,47.31
2022-07-28T07:40:05.460Z,47.25
2022-07-28T07:42:33.315Z,46.88
2022-07-28T07:45:01.504Z,45.25
2022-07-28T07:47:29.346Z,44.07
2022-07-28T07:49:57.345Z,43.59
2022-07-28T07:52:25.180Z,45.40
2022-07-28T07:54:53.043Z,44.59
2022-07-28T07:57:20.849Z,43.72
2022-07-28T07:59:49.002Z,46.15
2022-07-28T08:02:17.014Z,43.74
2022-07-28T08:04:45.002Z,44.71
2022-07-28T08:07:15.850Z,44.55
2022-07-28T08:09:43.700Z,44.53
2022-07-28T08:12:11.490Z,44.23
2022-07-28T08:14:39.848Z,44.25
2022-07-28T08:17:09.208Z,43.70
2022-07-28T08:19:37.000Z,44.07
2022-07-28T08:22:05.026Z,44.59
2022-07-28T08:24:34.266Z,43.58
2022-07-28T08:27:03.547Z,43.13
2022-07-28T08:29:31.383Z,42.68
2022-07-28T08:32:01.354Z,42.34
2022-07-28T08:34:33.876Z,42.62
2022-07-28T08:37:03.858Z,43.00
2022-07-28T08:39:33.173Z,43.36
2022-07-28T08:42:19.261Z,43.03
2022-07-28T08:44:50.135Z,42.49
2022-07-28T08:47:18.251Z,42.54
2022-07-28T08:49:48.001Z,42.32
2022-07-28T08:52:16.944Z,41.97
2022-07-28T08:54:45.710Z,41.96
2022-07-28T08:57:18.158Z,42.79
2022-07-28T08:59:47.647Z,42.00
2022-07-28T09:02:16.627Z,42.50
2022-07-28T09:04:46.756Z,42.73
2022-07-28T09:07:15.247Z,41.81
2022-07-28T09:09:43.873Z,41.13
2022-07-28T09:12:11.760Z,40.45
2022-07-28T09:14:39.775Z,40.77
2022-07-28T09:17:07.716Z,39.25
2022-07-28T09:19:37.684Z,34.36
2022-07-28T09:22:06.932Z,32.37
2022-07-28T09:24:39.858Z,28.90
2022-07-28T09:27:09.771Z,28.29
2022-07-28T09:29:39.276Z,24.81
2022-07-28T09:32:08.340Z,24.46
2022-07-28T09:34:44.482Z,24.73
2022-07-28T09:37:27.140Z,27.14
2022-07-28T09:40:00.311Z,19.25
2022-07-28T09:42:45.758Z,19.32
2022-07-28T09:45:22.956Z,16.95
2022-07-28T09:48:11.991Z,17.78
2022-07-28T09:50:41.930Z,15.37
2022-07-28T09:53:23.810Z,13.50
2022-07-28T09:56:00.631Z,13.20
2022-07-28T09:58:30.629Z,15.74
2022-07-28T10:01:05.548Z,15.02
2022-07-28T10:03:36.985Z,13.68
2022-07-28T10:06:08.205Z,12.19
2022-07-28T10:08:47.519Z,12.15
2022-07-28T10:11:17.511Z,13.45
2022-07-28T10:13:58.590Z,12.62
2022-07-28T10:16:28.584Z,12.54
2022-07-28T10:18:57.813Z,11.85
2022-07-28T10:21:27.125Z,11.46
2022-07-28T10:23:57.471Z,11.37
2022-07-28T10:26:30.805Z,11.71
2022-07-28T10:29:00.584Z,11.75
2022-07-28T10:31:40.613Z,10.54
2022-07-28T10:34:15.793Z,10.41
2022-07-28T10:36:44.879Z,9.65
2022-07-28T10:39:19.626Z,10.09
2022-07-28T10:41:47.851Z,10.83
2022-07-28T10:44:19.740Z,9.50
2022-07-28T10:46:47.949Z,9.67
2022-07-28T10:49:15.976Z,9.55
2022-07-28T10:52:06.572Z,10.06
2022-07-28T10:54:42.580Z,8.96
2022-07-28T10:57:11.943Z,9.38
2022-07-28T10:59:45.922Z,9.46
2022-07-28T11:02:53.368Z,10.01
2022-07-28T11:05:40.972Z,9.82
2022-07-28T11:08:15.963Z,10.38
2022-07-28T11:10:52.094Z,10.22
2022-07-28T11:13:33.074Z,10.39
2022-07-28T11:16:22.664Z,10.73
2022-07-28T11:19:28.672Z,12.02
2022-07-28T11:22:22.327Z,12.86
2022-07-28T11:25:19.483Z,13.35
2022-07-28T11:27:52.085Z,14.21
2022-07-28T11:30:27.652Z,14.94
2022-07-28T11:32:55.713Z,15.32
2022-07-28T11:35:28.067Z,16.19
2022-07-28T11:38:02.093Z,17.11
2022-07-28T11:40:46.923Z,17.90
2022-07-28T11:43:26.614Z,18.35
2022-07-28T11:46:10.253Z,19.51
2022-07-28T11:48:42.355Z,20.23
2022-07-28T11:51:11.444Z,21.12
2022-07-28T11:53:50.912Z,21.56
2022-07-28T11:56:37.218Z,22.32
2022-07-28T11:59:06.667Z,22.82
2022-07-28T12:01:36.993Z,23.45
2022-07-28T12:04:15.291Z,24.37
2022-07-28T12:06:49.515Z,24.56
2022-07-28T12:09:25.273Z,24.91
2022-07-28T12:11:55.888Z,25.37
2022-07-28T12:14:24.389Z,25.80
2022-07-28T12:16:53.277Z,26.62
2022-07-28T12:19:22.512Z,27.02
2022-07-28T12:21:55.187Z,27.18
2022-07-28T12:24:32.243Z,27.28
2022-07-28T12:27:15.119Z,28.28
2022-07-28T12:29:43.738Z,27.23
2022-07-28T12:32:13.027Z,27.38
2022-07-28T12:34:42.290Z,27.02
2022-07-28T12:37:10.289Z,27.67
2022-07-28T12:39:43.267Z,28.86
2022-07-28T12:42:13.653Z,28.27
2022-07-28T12:44:43.042Z,28.80
2022-07-28T12:47:12.680Z,28.59
2022-07-28T12:49:42.855Z,29.00
2022-07-28T12:52:23.729Z,29.10
2022-07-28T12:54:55.785Z,28.53
2022-07-28T12:57:49.349Z,29.04
2022-07-28T13:00:21.053Z,28.39
2022-07-28T13:02:50.932Z,29.38
2022-07-28T13:05:30.831Z,28.87
2022-07-28T13:08:02.266Z,28.82
2022-07-28T13:10:31.544Z,28.91
2022-07-28T13:13:08.655Z,29.58
2022-07-28T13:15:36.633Z,29.72
2022-07-28T13:18:05.198Z,30.19
2022-07-28T13:20:47.760Z,30.40
2022-07-28T13:23:16.159Z,31.19
2022-07-28T13:25:44.114Z,30.91
2022-07-28T13:28:27.998Z,30.84
2022-07-28T13:30:55.757Z,30.64
2022-07-28T13:33:23.795Z,30.97
2022-07-28T13:35:53.543Z,30.84
2022-07-28T13:38:21.628Z,32.02
2022-07-28T13:40:49.515Z,32.02
2022-07-28T13:43:18.432Z,33.39
2022-07-28T13:45:48.481Z,32.12
2022-07-28T13:48:16.314Z,32.31
2022-07-28T13:50:44.226Z,31.79
2022-07-28T13:53:31.562Z,31.43
2022-07-28T13:55:59.632Z,31.45
2022-07-28T13:58:28.007Z,32.64
2022-07-28T14:00:58.233Z,32.58
2022-07-28T14:03:27.109Z,33.00
2022-07-28T14:05:55.309Z,32.66
2022-07-28T14:08:25.368Z,33.39
2022-07-28T14:10:56.735Z,32.57
2022-07-28T14:13:28.326Z,33.11
2022-07-28T14:16:02.669Z,33.18
2022-07-28T14:18:34.766Z,33.48
2022-07-28T14:21:04.727Z,33.68
2022-07-28T14:23:32.586Z,34.07
2022-07-28T14:26:25.170Z,33.91
2022-07-28T14:28:48.964Z,33.59
2022-07-28T14:31:18.254Z,33.58
2022-07-28T14:33:52.276Z,33.88
2022-07-28T14:36:22.351Z,34.06
2022-07-28T14:38:54.489Z,34.69
2022-07-28T14:41:23.551Z,34.23
2022-07-28T14:43:51.773Z,33.67
2022-07-28T14:46:21.812Z,33.83
2022-07-28T14:48:50.130Z,34.85
2022-07-28T14:51:18.107Z,33.19
2022-07-28T14:53:51.633Z,33.42
2022-07-28T14:56:19.945Z,32.60
2022-07-28T14:58:47.859Z,31.44
2022-07-28T15:01:15.629Z,31.84
2022-07-28T15:03:43.712Z,31.01
2022-07-28T15:06:11.639Z,31.18
2022-07-28T15:08:39.493Z,31.96
2022-07-28T15:11:08.151Z,32.86
2022-07-28T15:13:36.117Z,33.69
2022-07-28T15:16:04.319Z,34.30
2022-07-28T15:18:32.176Z,32.84
2022-07-28T15:21:00.545Z,32.68
2022-07-28T15:23:28.375Z,32.36
2022-07-28T15:25:56.307Z,32.47
2022-07-28T15:28:24.206Z,33.13
2022-07-28T15:30:52.928Z,33.50
2022-07-28T15:33:21.265Z,33.36
2022-07-28T15:35:59.419Z,33.04
2022-07-28T15:38:29.241Z,34.06
2022-07-28T15:41:00.490Z,34.10
2022-07-28T15:43:29.113Z,33.98
2022-07-28T15:45:57.490Z,35.06
2022-07-28T15:48:25.570Z,34.77
2022-07-28T15:50:53.526Z,34.81
2022-07-28T15:53:23.103Z,35.06
2022-07-28T15:55:51.973Z,34.58
2022-07-28T15:58:21.766Z,34.42
2022-07-28T16:00:50.662Z,34.77
2022-07-28T16:03:18.653Z,35.71
2022-07-28T16:05:49.649Z,34.47
2022-07-28T16:08:18.808Z,34.73
2022-07-28T16:10:53.106Z,34.50
2022-07-28T16:13:36.394Z,35.09
2022-07-28T16:16:11.182Z,35.40
2022-07-28T16:18:42.109Z,36.01
2022-07-28T16:21:10.732Z,37.08
2022-07-28T16:23:38.781Z,37.11
2022-07-28T16:26:09.438Z,37.72
2022-07-28T16:28:37.521Z,37.78
2022-07-28T16:31:05.771Z,38.28
2022-07-28T16:33:34.113Z,38.00
2022-07-28T16:36:02.663Z,38.55
2022-07-28T16:38:30.717Z,39.14
2022-07-28T16:40:58.979Z,39.43
2022-07-28T16:43:26.763Z,39.05
2022-07-28T16:45:54.512Z,39.50
2022-07-28T16:48:22.327Z,39.89
2022-07-28T16:50:50.249Z,40.43
2022-07-28T16:53:18.679Z,41.63
2022-07-28T16:55:48.274Z,40.80
2022-07-28T16:58:18.114Z,40.68
2022-07-28T17:00:45.971Z,40.63
2022-07-28T17:03:14.116Z,41.65
2022-07-28T17:05:42.104Z,42.47
2022-07-28T17:08:10.143Z,41.59
2022-07-28T17:10:38.094Z,41.69
2022-07-28T17:13:06.095Z,43.89
2022-07-28T17:15:34.056Z,45.23
2022-07-28T17:18:02.725Z,44.89
2022-07-28T17:20:30.509Z,45.34
2022-07-28T17:22:58.730Z,46.06
2022-07-28T17:28:14.653Z,46.86
2022-07-28T17:30:42.617Z,47.11
2022-07-28T17:33:10.591Z,47.78
2022-07-28T17:35:40.114Z,47.10
2022-07-28T17:38:09.525Z,47.55
2022-07-28T17:40:38.176Z,46.75
2022-07-28T17:43:06.399Z,46.01
2022-07-28T17:45:34.680Z,47.79
2022-07-28T17:48:02.527Z,48.23
2022-07-28T17:50:30.633Z,50.38
2022-07-28T17:52:58.562Z,51.78
2022-07-28T17:55:57.495Z,52.72
2022-07-28T17:58:29.703Z,52.33
2022-07-28T18:01:11.091Z,52.96
2022-07-28T18:03:58.831Z,53.31
2022-07-28T18:06:34.908Z,54.44
2022-07-28T18:09:12.257Z,55.11
2022-07-28T18:11:57.961Z,55.50
2022-07-28T18:14:28.424Z,55.63
2022-07-28T18:16:56.610Z,56.88
2022-07-28T18:19:25.725Z,57.14
2022-07-28T18:21:54.035Z,57.80
2022-07-28T18:24:22.663Z,59.14
2022-07-28T18:26:52.123Z,61.03
2022-07-28T18:29:21.462Z,62.50
2022-07-28T18:31:52.922Z,62.22
2022-07-28T18:34:23.473Z,60.56
2022-07-28T18:36:53.983Z,57.56
2022-07-28T18:39:22.355Z,56.16
2022-07-28T18:41:50.291Z,57.23
2022-07-28T18:44:19.784Z,57.95
2022-07-28T18:46:48.449Z,59.33
2022-07-28T18:49:16.672Z,60.86
2022-07-28T18:51:45.673Z,62.59
2022-07-28T18:54:18.783Z,62.51
2022-07-28T18:56:50.032Z,61.32
2022-07-28T18:59:17.986Z,61.27
2022-07-28T19:01:45.883Z,60.15
2022-07-28T19:04:14.173Z,59.86
2022-07-28T19:06:42.550Z,58.26
2022-07-28T19:09:10.274Z,57.21
2022-07-28T19:11:42.395Z,57.35
2022-07-28T19:14:15.128Z,58.38
2022-07-28T19:16:43.898Z,61.48
2022-07-28T19:19:13.400Z,62.78
2022-07-28T19:21:43.250Z,62.72
2022-07-28T19:24:16.014Z,62.85
2022-07-28T19:26:46.576Z,62.83
2022-07-28T19:29:14.562Z,61.55
2022-07-28T19:31:42.692Z,60.54
2022-07-28T19:34:10.701Z,59.98
2022-07-28T19:36:41.763Z,60.04
2022-07-28T19:39:12.164Z,59.80
2022-07-28T19:41:40.701Z,58.97
2022-07-28T19:44:08.721Z,57.59
2022-07-28T19:46:39.410Z,59.25
2022-07-28T19:49:09.219Z,61.11
2022-07-28T19:51:38.335Z,62.51
2022-07-28T19:54:06.360Z,61.93
2022-07-28T19:56:34.324Z,60.89
2022-07-28T19:59:02.722Z,60.78
2022-07-28T20:01:31.234Z,61.08
2022-07-28T20:04:03.132Z,61.32
2022-07-28T20:06:33.403Z,61.21
2022-07-28T20:09:02.127Z,59.44
2022-07-28T20:11:31.442Z,57.55
2022-07-28T20:14:00.081Z,57.76
2022-07-28T20:16:28.014Z,58.81
2022-07-28T20:18:57.147Z,61.89
2022-07-28T20:21:26.475Z,64.58
2022-07-28T20:23:55.630Z,63.91
2022-07-28T20:26:26.472Z,60.79
2022-07-28T20:28:56.383Z,57.20
2022-07-28T20:31:24.675Z,57.94
2022-07-28T20:33:53.166Z,59.45
2022-07-28T20:36:23.851Z,62.88
2022-07-28T20:38:56.280Z,63.77
2022-07-28T20:41:24.453Z,61.62
2022-07-28T20:44:18.283Z,63.20
2022-07-28T20:46:40.400Z,63.95
2022-07-28T20:49:08.863Z,63.84
2022-07-28T20:51:36.719Z,64.36
2022-07-28T20:54:04.467Z,64.64
2022-07-28T20:56:32.329Z,64.58
2022-07-28T20:59:06.510Z,64.73
2022-07-28T21:01:34.852Z,64.71
2022-07-28T21:04:03.053Z,64.39
2022-07-28T21:06:31.822Z,64.10
2022-07-28T21:09:01.968Z,63.60
2022-07-28T21:11:35.530Z,63.25
2022-07-28T21:14:04.591Z,58.87
2022-07-28T21:16:32.477Z,59.15
2022-07-28T21:19:02.151Z,60.08
2022-07-28T21:21:30.388Z,63.98
2022-07-28T21:23:58.216Z,66.09
2022-07-28T21:26:26.515Z,66.06
2022-07-28T21:32:02.153Z,64.49
2022-07-28T21:34:34.451Z,65.42
2022-07-28T21:37:03.436Z,65.12
2022-07-28T21:39:31.695Z,64.97
2022-07-28T21:42:00.182Z,65.32
2022-07-28T21:44:27.937Z,65.41
2022-07-28T21:46:55.674Z,65.02
2022-07-28T21:49:23.713Z,64.28
2022-07-28T21:51:51.741Z,64.29
2022-07-28T21:54:20.559Z,64.49
2022-07-28T21:56:48.675Z,64.32
2022-07-28T21:59:16.571Z,64.91
2022-07-28T22:01:45.100Z,64.96
2022-07-28T22:04:13.523Z,65.05
2022-07-28T22:06:46.064Z,65.21
2022-07-28T22:09:15.176Z,64.62
2022-07-28T22:11:43.181Z,64.70
2022-07-28T22:14:11.133Z,64.70
2022-07-28T22:16:39.389Z,64.61
2022-07-28T22:19:07.267Z,64.52
2022-07-28T22:21:35.222Z,64.29
2022-07-28T22:24:03.118Z,62.49
2022-07-28T22:26:30.970Z,63.12
2022-07-28T22:28:58.791Z,64.36
2022-07-28T22:31:26.967Z,64.47
2022-07-28T22:33:54.768Z,64.37
2022-07-28T22:36:22.858Z,64.35
2022-07-28T22:38:50.870Z,64.31
2022-07-28T22:41:18.732Z,62.43
2022-07-28T22:43:46.605Z,64.08
2022-07-28T22:46:14.562Z,64.66
2022-07-28T22:48:42.671Z,64.27
2022-07-28T22:51:14.891Z,64.66
2022-07-28T22:53:42.747Z,64.71
2022-07-28T22:56:11.336Z,64.45
2022-07-28T22:58:40.184Z,64.64
2022-07-28T23:01:08.834Z,64.21
2022-07-28T23:03:37.093Z,64.64
2022-07-28T23:06:06.159Z,64.42
2022-07-28T23:08:34.519Z,64.89
2022-07-28T23:11:02.379Z,64.93
2022-07-28T23:13:30.198Z,64.93
2022-07-28T23:15:58.453Z,64.93
2022-07-28T23:18:26.476Z,65.20
2022-07-28T23:20:54.331Z,65.25
2022-07-28T23:23:22.286Z,64.95
2022-07-28T23:25:50.170Z,64.84
2022-07-28T23:28:18.027Z,65.00
2022-07-28T23:30:47.443Z,64.93
2022-07-28T23:33:56.130Z,64.71
2022-07-28T23:36:05.728Z,64.42
2022-07-28T23:38:33.675Z,65.00
2022-07-28T23:41:01.469Z,65.38
2022-07-28T23:43:30.614Z,65.57
2022-07-28T23:45:58.393Z,64.92
2022-07-28T23:48:26.399Z,62.81
2022-07-28T23:50:54.210Z,63.70
2022-07-28T23:53:22.051Z,64.78
2022-07-28T23:55:50.007Z,65.41
2022-07-28T23:58:17.840Z,65.40
